sensor_id;sensor_type;location;lat;lon;timestamp;P1;durP1;ratioP1;P2;durP2;ratioP2
60336;SDS011;46978;50.288;28.624;2023-10-13T00:00:45;12.37;;;5.69;;
60336;SDS011;46978;50.288;28.624;2023-10-13T00:01:50;11.04;;;5.89;;
60336;SDS011;46978;50.288;28.624;2023-10-13T00:02:51;9.09;;;5.19;;
60336;SDS011;46978;50.288;28.624;2023-10-13T00:03:53;9.42;;;5.11;;
60336;SDS011;46978;50.288;28.624;2023-10-13T00:04:54;9.32;;;5.07;;
60336;SDS011;46978;50.288;28.624;2023-10-13T00:05:57;8.77;;;5.21;;
60336;SDS011;46978;50.288;28.624;2023-10-13T00:06:59;7.91;;;5.44;;
60336;SDS011;46978;50.288;28.624;2023-10-13T00:08:01;8.63;;;4.96;;
60336;SDS011;46978;50.288;28.624;2023-10-13T00:09:04;9.63;;;5.66;;
60336;SDS011;46978;50.288;28.624;2023-10-13T00:10:07;9.02;;;5.57;;
60336;SDS011;46978;50.288;28.624;2023-10-13T00:11:17;11.43;;;5.32;;
60336;SDS011;46978;50.288;28.624;2023-10-13T00:12:16;9.31;;;5.08;;
60336;SDS011;46978;50.288;28.624;2023-10-13T00:13:17;10.36;;;5.07;;
60336;SDS011;46978;50.288;28.624;2023-10-13T00:14:19;6.99;;;4.56;;
60336;SDS011;46978;50.288;28.624;2023-10-13T00:15:21;8.87;;;4.97;;
60336;SDS011;46978;50.288;28.624;2023-10-13T00:16:23;8.62;;;4.31;;
60336;SDS011;46978;50.288;28.624;2023-10-13T00:17:24;8.54;;;4.65;;
60336;SDS011;46978;50.288;28.624;2023-10-13T00:18:27;7.81;;;4.58;;
60336;SDS011;46978;50.288;28.624;2023-10-13T00:19:31;8.37;;;4.48;;
60336;SDS011;46978;50.288;28.624;2023-10-13T00:20:34;8.91;;;4.53;;
60336;SDS011;46978;50.288;28.624;2023-10-13T00:21:35;10.02;;;4.66;;
60336;SDS011;46978;50.288;28.624;2023-10-13T00:22:37;7.83;;;4.44;;
60336;SDS011;46978;50.288;28.624;2023-10-13T00:23:43;7.55;;;4.16;;
60336;SDS011;46978;50.288;28.624;2023-10-13T00:24:45;7.70;;;3.97;;
60336;SDS011;46978;50.288;28.624;2023-10-13T00:25:48;7.86;;;3.96;;
60336;SDS011;46978;50.288;28.624;2023-10-13T00:26:51;7.05;;;3.92;;
60336;SDS011;46978;50.288;28.624;2023-10-13T00:27:52;7.37;;;4.29;;
60336;SDS011;46978;50.288;28.624;2023-10-13T00:30:15;7.48;;;4.63;;
60336;SDS011;46978;50.288;28.624;2023-10-13T00:31:17;7.03;;;4.26;;
60336;SDS011;46978;50.288;28.624;2023-10-13T00:32:19;8.01;;;4.44;;
60336;SDS011;46978;50.288;28.624;2023-10-13T00:33:20;7.94;;;4.70;;
60336;SDS011;46978;50.288;28.624;2023-10-13T00:34:21;8.12;;;4.94;;
60336;SDS011;46978;50.288;28.624;2023-10-13T00:35:23;8.75;;;4.80;;
60336;SDS011;46978;50.288;28.624;2023-10-13T00:36:26;8.67;;;5.04;;
60336;SDS011;46978;50.288;28.624;2023-10-13T00:37:27;7.87;;;4.54;;
60336;SDS011;46978;50.288;28.624;2023-10-13T00:38:28;8.93;;;4.79;;
60336;SDS011;46978;50.288;28.624;2023-10-13T00:39:30;9.11;;;5.45;;
60336;SDS011;46978;50.288;28.624;2023-10-13T00:40:32;7.15;;;4.44;;
60336;SDS011;46978;50.288;28.624;2023-10-13T00:41:33;9.35;;;5.17;;
60336;SDS011;46978;50.288;28.624;2023-10-13T00:42:35;7.99;;;4.86;;
60336;SDS011;46978;50.288;28.624;2023-10-13T00:43:36;6.94;;;4.51;;
60336;SDS011;46978;50.288;28.624;2023-10-13T00:44:42;7.07;;;4.77;;
60336;SDS011;46978;50.288;28.624;2023-10-13T00:45:44;8.71;;;4.41;;
60336;SDS011;46978;50.288;28.624;2023-10-13T00:46:46;7.96;;;4.48;;
60336;SDS011;46978;50.288;28.624;2023-10-13T00:47:48;9.09;;;4.62;;
60336;SDS011;46978;50.288;28.624;2023-10-13T00:48:50;7.55;;;4.78;;
60336;SDS011;46978;50.288;28.624;2023-10-13T00:49:51;7.26;;;4.32;;
60336;SDS011;46978;50.288;28.624;2023-10-13T00:50:53;7.71;;;4.24;;
60336;SDS011;46978;50.288;28.624;2023-10-13T00:51:55;7.14;;;4.08;;
60336;SDS011;46978;50.288;28.624;2023-10-13T00:52:57;7.39;;;4.09;;
60336;SDS011;46978;50.288;28.624;2023-10-13T00:54:00;7.06;;;4.17;;
60336;SDS011;46978;50.288;28.624;2023-10-13T00:55:03;7.00;;;4.08;;
60336;SDS011;46978;50.288;28.624;2023-10-13T00:56:06;6.38;;;3.74;;
60336;SDS011;46978;50.288;28.624;2023-10-13T00:57:08;5.47;;;3.65;;
60336;SDS011;46978;50.288;28.624;2023-10-13T00:58:10;8.17;;;3.89;;
60336;SDS011;46978;50.288;28.624;2023-10-13T00:59:13;7.28;;;4.13;;
60336;SDS011;46978;50.288;28.624;2023-10-13T01:00:16;7.54;;;3.87;;
60336;SDS011;46978;50.288;28.624;2023-10-13T01:01:18;7.20;;;3.89;;
60336;SDS011;46978;50.288;28.624;2023-10-13T01:02:20;7.59;;;3.92;;
60336;SDS011;46978;50.288;28.624;2023-10-13T01:03:23;6.42;;;3.73;;
60336;SDS011;46978;50.288;28.624;2023-10-13T01:04:25;9.42;;;3.89;;
60336;SDS011;46978;50.288;28.624;2023-10-13T01:05:26;6.90;;;3.71;;
60336;SDS011;46978;50.288;28.624;2023-10-13T01:06:28;6.82;;;3.81;;
60336;SDS011;46978;50.288;28.624;2023-10-13T01:07:31;6.85;;;3.45;;
60336;SDS011;46978;50.288;28.624;2023-10-13T01:08:33;5.63;;;3.63;;
60336;SDS011;46978;50.288;28.624;2023-10-13T01:09:40;6.96;;;3.62;;
60336;SDS011;46978;50.288;28.624;2023-10-13T01:10:42;6.79;;;3.62;;
60336;SDS011;46978;50.288;28.624;2023-10-13T01:11:47;6.18;;;3.60;;
60336;SDS011;46978;50.288;28.624;2023-10-13T01:12:50;6.20;;;3.72;;
60336;SDS011;46978;50.288;28.624;2023-10-13T01:13:51;6.69;;;3.76;;
60336;SDS011;46978;50.288;28.624;2023-10-13T01:14:53;7.19;;;4.09;;
60336;SDS011;46978;50.288;28.624;2023-10-13T01:15:54;5.87;;;3.50;;
60336;SDS011;46978;50.288;28.624;2023-10-13T01:16:56;6.57;;;3.60;;
60336;SDS011;46978;50.288;28.624;2023-10-13T01:18:07;6.38;;;3.82;;
60336;SDS011;46978;50.288;28.624;2023-10-13T01:19:13;6.41;;;3.99;;
60336;SDS011;46978;50.288;28.624;2023-10-13T01:20:16;5.54;;;3.76;;
60336;SDS011;46978;50.288;28.624;2023-10-13T01:21:18;7.16;;;3.96;;
60336;SDS011;46978;50.288;28.624;2023-10-13T01:22:20;5.68;;;3.21;;
60336;SDS011;46978;50.288;28.624;2023-10-13T01:23:22;6.24;;;3.51;;
60336;SDS011;46978;50.288;28.624;2023-10-13T01:24:23;7.37;;;3.76;;
60336;SDS011;46978;50.288;28.624;2023-10-13T01:25:25;5.74;;;3.64;;
60336;SDS011;46978;50.288;28.624;2023-10-13T01:26:27;6.15;;;3.58;;
60336;SDS011;46978;50.288;28.624;2023-10-13T01:27:28;7.09;;;3.96;;
60336;SDS011;46978;50.288;28.624;2023-10-13T01:28:30;7.54;;;3.72;;
60336;SDS011;46978;50.288;28.624;2023-10-13T01:29:32;6.63;;;3.77;;
60336;SDS011;46978;50.288;28.624;2023-10-13T01:30:34;5.82;;;3.73;;
60336;SDS011;46978;50.288;28.624;2023-10-13T01:31:36;6.76;;;3.93;;
60336;SDS011;46978;50.288;28.624;2023-10-13T01:32:37;5.46;;;3.58;;
60336;SDS011;46978;50.288;28.624;2023-10-13T01:33:39;6.48;;;3.64;;
60336;SDS011;46978;50.288;28.624;2023-10-13T01:34:40;7.33;;;4.03;;
60336;SDS011;46978;50.288;28.624;2023-10-13T01:35:42;6.47;;;3.76;;
60336;SDS011;46978;50.288;28.624;2023-10-13T01:36:44;6.24;;;3.53;;
60336;SDS011;46978;50.288;28.624;2023-10-13T01:37:46;5.88;;;3.57;;
60336;SDS011;46978;50.288;28.624;2023-10-13T01:38:48;6.38;;;4.06;;
60336;SDS011;46978;50.288;28.624;2023-10-13T01:39:50;8.53;;;4.25;;
60336;SDS011;46978;50.288;28.624;2023-10-13T01:40:51;7.85;;;4.16;;
60336;SDS011;46978;50.288;28.624;2023-10-13T01:41:53;8.76;;;4.11;;
60336;SDS011;46978;50.288;28.624;2023-10-13T01:42:55;9.00;;;4.39;;
60336;SDS011;46978;50.288;28.624;2023-10-13T01:43:56;7.39;;;4.58;;
60336;SDS011;46978;50.288;28.624;2023-10-13T01:44:58;6.01;;;3.76;;
60336;SDS011;46978;50.288;28.624;2023-10-13T01:45:59;5.98;;;3.58;;
60336;SDS011;46978;50.288;28.624;2023-10-13T01:47:01;9.16;;;4.51;;
60336;SDS011;46978;50.288;28.624;2023-10-13T01:48:02;7.31;;;3.77;;
60336;SDS011;46978;50.288;28.624;2023-10-13T01:49:05;7.73;;;4.23;;
60336;SDS011;46978;50.288;28.624;2023-10-13T01:50:07;6.07;;;3.89;;
60336;SDS011;46978;50.288;28.624;2023-10-13T01:51:09;8.27;;;3.93;;
60336;SDS011;46978;50.288;28.624;2023-10-13T01:52:10;7.83;;;4.17;;
60336;SDS011;46978;50.288;28.624;2023-10-13T01:53:12;7.12;;;3.90;;
60336;SDS011;46978;50.288;28.624;2023-10-13T01:54:15;8.11;;;4.05;;
60336;SDS011;46978;50.288;28.624;2023-10-13T01:55:16;7.11;;;4.26;;
60336;SDS011;46978;50.288;28.624;2023-10-13T01:56:18;9.67;;;4.21;;
60336;SDS011;46978;50.288;28.624;2023-10-13T01:57:19;10.06;;;4.39;;
60336;SDS011;46978;50.288;28.624;2023-10-13T01:58:21;6.79;;;4.42;;
60336;SDS011;46978;50.288;28.624;2023-10-13T01:59:22;6.85;;;4.59;;
60336;SDS011;46978;50.288;28.624;2023-10-13T02:00:24;7.39;;;4.79;;
60336;SDS011;46978;50.288;28.624;2023-10-13T02:01:32;7.87;;;4.20;;
60336;SDS011;46978;50.288;28.624;2023-10-13T02:02:31;7.71;;;4.93;;
60336;SDS011;46978;50.288;28.624;2023-10-13T02:03:32;10.69;;;4.79;;
60336;SDS011;46978;50.288;28.624;2023-10-13T02:04:34;8.87;;;4.30;;
60336;SDS011;46978;50.288;28.624;2023-10-13T02:05:36;7.81;;;4.17;;
60336;SDS011;46978;50.288;28.624;2023-10-13T02:06:38;8.42;;;4.81;;
60336;SDS011;46978;50.288;28.624;2023-10-13T02:07:39;7.44;;;4.69;;
60336;SDS011;46978;50.288;28.624;2023-10-13T02:08:41;9.46;;;4.84;;
60336;SDS011;46978;50.288;28.624;2023-10-13T02:09:42;6.67;;;4.15;;
60336;SDS011;46978;50.288;28.624;2023-10-13T02:10:45;8.91;;;4.92;;
60336;SDS011;46978;50.288;28.624;2023-10-13T02:11:46;8.44;;;4.17;;
60336;SDS011;46978;50.288;28.624;2023-10-13T02:12:48;8.88;;;4.52;;
60336;SDS011;46978;50.288;28.624;2023-10-13T02:13:49;7.96;;;4.68;;
60336;SDS011;46978;50.288;28.624;2023-10-13T02:14:51;8.55;;;4.53;;
60336;SDS011;46978;50.288;28.624;2023-10-13T02:15:53;9.87;;;4.34;;
60336;SDS011;46978;50.288;28.624;2023-10-13T02:16:56;8.36;;;4.48;;
60336;SDS011;46978;50.288;28.624;2023-10-13T02:17:58;7.91;;;4.59;;
60336;SDS011;46978;50.288;28.624;2023-10-13T02:18:59;8.26;;;4.51;;
60336;SDS011;46978;50.288;28.624;2023-10-13T02:20:01;7.30;;;4.60;;
60336;SDS011;46978;50.288;28.624;2023-10-13T02:21:03;8.91;;;4.92;;
60336;SDS011;46978;50.288;28.624;2023-10-13T02:22:05;6.88;;;4.64;;
60336;SDS011;46978;50.288;28.624;2023-10-13T02:23:07;6.87;;;4.35;;
60336;SDS011;46978;50.288;28.624;2023-10-13T02:24:09;8.65;;;4.92;;
60336;SDS011;46978;50.288;28.624;2023-10-13T02:25:10;7.38;;;4.25;;
60336;SDS011;46978;50.288;28.624;2023-10-13T02:26:12;9.37;;;4.56;;
60336;SDS011;46978;50.288;28.624;2023-10-13T02:27:14;8.44;;;5.00;;
60336;SDS011;46978;50.288;28.624;2023-10-13T02:28:16;8.21;;;4.84;;
60336;SDS011;46978;50.288;28.624;2023-10-13T02:29:17;8.03;;;4.78;;
60336;SDS011;46978;50.288;28.624;2023-10-13T02:30:19;8.66;;;4.84;;
60336;SDS011;46978;50.288;28.624;2023-10-13T02:31:21;10.14;;;4.81;;
60336;SDS011;46978;50.288;28.624;2023-10-13T02:32:22;8.46;;;4.68;;
60336;SDS011;46978;50.288;28.624;2023-10-13T02:33:24;8.40;;;4.99;;
60336;SDS011;46978;50.288;28.624;2023-10-13T02:34:25;9.35;;;5.14;;
60336;SDS011;46978;50.288;28.624;2023-10-13T02:35:27;11.16;;;5.29;;
60336;SDS011;46978;50.288;28.624;2023-10-13T02:36:28;9.66;;;4.94;;
60336;SDS011;46978;50.288;28.624;2023-10-13T02:37:30;9.43;;;5.22;;
60336;SDS011;46978;50.288;28.624;2023-10-13T02:38:32;9.43;;;5.34;;
60336;SDS011;46978;50.288;28.624;2023-10-13T02:39:34;8.94;;;5.00;;
60336;SDS011;46978;50.288;28.624;2023-10-13T02:40:36;8.06;;;5.12;;
60336;SDS011;46978;50.288;28.624;2023-10-13T02:41:37;8.58;;;4.76;;
60336;SDS011;46978;50.288;28.624;2023-10-13T02:44:00;8.91;;;4.41;;
60336;SDS011;46978;50.288;28.624;2023-10-13T02:45:02;7.72;;;5.06;;
60336;SDS011;46978;50.288;28.624;2023-10-13T02:46:04;10.55;;;5.06;;
60336;SDS011;46978;50.288;28.624;2023-10-13T02:48:27;9.17;;;4.93;;
60336;SDS011;46978;50.288;28.624;2023-10-13T02:49:30;8.25;;;4.84;;
60336;SDS011;46978;50.288;28.624;2023-10-13T02:50:31;7.99;;;4.81;;
60336;SDS011;46978;50.288;28.624;2023-10-13T02:51:33;8.09;;;4.99;;
60336;SDS011;46978;50.288;28.624;2023-10-13T02:52:35;8.12;;;5.15;;
60336;SDS011;46978;50.288;28.624;2023-10-13T02:53:36;9.72;;;5.14;;
60336;SDS011;46978;50.288;28.624;2023-10-13T02:54:38;8.84;;;4.95;;
60336;SDS011;46978;50.288;28.624;2023-10-13T02:55:53;7.93;;;4.67;;
60336;SDS011;46978;50.288;28.624;2023-10-13T02:56:57;6.87;;;4.58;;
60336;SDS011;46978;50.288;28.624;2023-10-13T02:57:59;8.38;;;4.89;;
60336;SDS011;46978;50.288;28.624;2023-10-13T02:59:00;9.36;;;4.82;;
60336;SDS011;46978;50.288;28.624;2023-10-13T03:00:02;8.97;;;5.06;;
60336;SDS011;46978;50.288;28.624;2023-10-13T03:01:09;8.31;;;4.99;;
60336;SDS011;46978;50.288;28.624;2023-10-13T03:02:09;8.46;;;4.36;;
60336;SDS011;46978;50.288;28.624;2023-10-13T03:03:10;9.60;;;5.11;;
60336;SDS011;46978;50.288;28.624;2023-10-13T03:04:12;8.48;;;4.69;;
60336;SDS011;46978;50.288;28.624;2023-10-13T03:05:14;7.58;;;5.12;;
60336;SDS011;46978;50.288;28.624;2023-10-13T03:06:16;7.36;;;4.51;;
60336;SDS011;46978;50.288;28.624;2023-10-13T03:07:19;13.11;;;5.55;;
60336;SDS011;46978;50.288;28.624;2023-10-13T03:08:20;9.56;;;5.39;;
60336;SDS011;46978;50.288;28.624;2023-10-13T03:09:22;9.31;;;4.84;;
60336;SDS011;46978;50.288;28.624;2023-10-13T03:10:23;10.68;;;5.66;;
60336;SDS011;46978;50.288;28.624;2023-10-13T03:11:25;8.52;;;5.59;;
60336;SDS011;46978;50.288;28.624;2023-10-13T03:12:27;8.76;;;5.31;;
60336;SDS011;46978;50.288;28.624;2023-10-13T03:13:28;10.24;;;5.80;;
60336;SDS011;46978;50.288;28.624;2023-10-13T03:14:30;11.95;;;5.40;;
60336;SDS011;46978;50.288;28.624;2023-10-13T03:15:31;9.59;;;5.81;;
60336;SDS011;46978;50.288;28.624;2023-10-13T03:16:33;10.37;;;5.86;;
60336;SDS011;46978;50.288;28.624;2023-10-13T03:17:35;12.39;;;6.44;;
60336;SDS011;46978;50.288;28.624;2023-10-13T03:18:36;9.83;;;5.96;;
60336;SDS011;46978;50.288;28.624;2023-10-13T03:19:38;10.14;;;6.64;;
60336;SDS011;46978;50.288;28.624;2023-10-13T03:20:45;13.64;;;7.72;;
60336;SDS011;46978;50.288;28.624;2023-10-13T03:21:47;15.12;;;7.69;;
60336;SDS011;46978;50.288;28.624;2023-10-13T03:22:48;13.31;;;8.33;;
60336;SDS011;46978;50.288;28.624;2023-10-13T03:23:52;14.07;;;8.73;;
60336;SDS011;46978;50.288;28.624;2023-10-13T03:24:54;15.26;;;8.98;;
60336;SDS011;46978;50.288;28.624;2023-10-13T03:25:55;12.74;;;8.57;;
60336;SDS011;46978;50.288;28.624;2023-10-13T03:26:57;13.17;;;9.00;;
60336;SDS011;46978;50.288;28.624;2023-10-13T03:27:58;14.91;;;8.40;;
60336;SDS011;46978;50.288;28.624;2023-10-13T03:29:00;12.81;;;7.82;;
60336;SDS011;46978;50.288;28.624;2023-10-13T03:30:03;12.81;;;7.83;;
60336;SDS011;46978;50.288;28.624;2023-10-13T03:31:06;11.32;;;7.40;;
60336;SDS011;46978;50.288;28.624;2023-10-13T03:32:07;12.66;;;7.14;;
60336;SDS011;46978;50.288;28.624;2023-10-13T03:33:09;12.26;;;7.11;;
60336;SDS011;46978;50.288;28.624;2023-10-13T03:34:11;12.48;;;7.68;;
60336;SDS011;46978;50.288;28.624;2023-10-13T03:35:13;11.14;;;6.56;;
60336;SDS011;46978;50.288;28.624;2023-10-13T03:36:15;12.51;;;7.17;;
60336;SDS011;46978;50.288;28.624;2023-10-13T03:37:17;12.26;;;7.12;;
60336;SDS011;46978;50.288;28.624;2023-10-13T03:38:19;10.79;;;7.09;;
60336;SDS011;46978;50.288;28.624;2023-10-13T03:39:21;9.91;;;6.46;;
60336;SDS011;46978;50.288;28.624;2023-10-13T03:40:23;11.92;;;6.70;;
60336;SDS011;46978;50.288;28.624;2023-10-13T03:41:25;9.61;;;6.33;;
60336;SDS011;46978;50.288;28.624;2023-10-13T03:42:27;10.93;;;6.03;;
60336;SDS011;46978;50.288;28.624;2023-10-13T03:43:28;11.60;;;6.59;;
60336;SDS011;46978;50.288;28.624;2023-10-13T03:44:29;11.51;;;6.51;;
60336;SDS011;46978;50.288;28.624;2023-10-13T03:45:36;11.14;;;6.29;;
60336;SDS011;46978;50.288;28.624;2023-10-13T03:46:36;12.11;;;6.41;;
60336;SDS011;46978;50.288;28.624;2023-10-13T03:47:37;10.92;;;7.09;;
60336;SDS011;46978;50.288;28.624;2023-10-13T03:48:39;10.20;;;6.04;;
60336;SDS011;46978;50.288;28.624;2023-10-13T03:49:40;11.12;;;6.69;;
60336;SDS011;46978;50.288;28.624;2023-10-13T03:50:42;10.19;;;6.06;;
60336;SDS011;46978;50.288;28.624;2023-10-13T03:51:44;11.52;;;6.41;;
60336;SDS011;46978;50.288;28.624;2023-10-13T03:52:45;10.54;;;6.24;;
60336;SDS011;46978;50.288;28.624;2023-10-13T03:53:47;12.64;;;6.75;;
60336;SDS011;46978;50.288;28.624;2023-10-13T03:54:48;8.88;;;6.21;;
60336;SDS011;46978;50.288;28.624;2023-10-13T03:55:50;12.74;;;6.50;;
60336;SDS011;46978;50.288;28.624;2023-10-13T03:56:52;11.02;;;6.47;;
60336;SDS011;46978;50.288;28.624;2023-10-13T03:57:53;9.70;;;6.52;;
60336;SDS011;46978;50.288;28.624;2023-10-13T03:58:55;9.41;;;6.46;;
60336;SDS011;46978;50.288;28.624;2023-10-13T03:59:58;10.76;;;6.34;;
60336;SDS011;46978;50.288;28.624;2023-10-13T04:01:00;10.81;;;6.65;;
60336;SDS011;46978;50.288;28.624;2023-10-13T04:02:02;13.01;;;6.79;;
60336;SDS011;46978;50.288;28.624;2023-10-13T04:03:04;10.65;;;7.18;;
60336;SDS011;46978;50.288;28.624;2023-10-13T04:04:05;14.30;;;6.91;;
60336;SDS011;46978;50.288;28.624;2023-10-13T04:05:07;15.71;;;7.71;;
60336;SDS011;46978;50.288;28.624;2023-10-13T04:06:09;14.96;;;7.38;;
60336;SDS011;46978;50.288;28.624;2023-10-13T04:07:10;13.18;;;7.73;;
60336;SDS011;46978;50.288;28.624;2023-10-13T04:08:12;16.40;;;7.32;;
60336;SDS011;46978;50.288;28.624;2023-10-13T04:10:18;12.70;;;7.81;;
60336;SDS011;46978;50.288;28.624;2023-10-13T04:11:19;16.23;;;8.53;;
60336;SDS011;46978;50.288;28.624;2023-10-13T04:12:21;12.69;;;7.76;;
60336;SDS011;46978;50.288;28.624;2023-10-13T04:13:22;13.65;;;7.97;;
60336;SDS011;46978;50.288;28.624;2023-10-13T04:14:24;15.10;;;8.31;;
60336;SDS011;46978;50.288;28.624;2023-10-13T04:15:26;15.66;;;8.28;;
60336;SDS011;46978;50.288;28.624;2023-10-13T04:16:27;13.24;;;8.56;;
60336;SDS011;46978;50.288;28.624;2023-10-13T04:17:29;14.50;;;8.22;;
60336;SDS011;46978;50.288;28.624;2023-10-13T04:18:30;13.00;;;7.85;;
60336;SDS011;46978;50.288;28.624;2023-10-13T04:19:32;13.24;;;7.71;;
60336;SDS011;46978;50.288;28.624;2023-10-13T04:20:34;14.59;;;8.07;;
60336;SDS011;46978;50.288;28.624;2023-10-13T04:21:35;14.49;;;8.02;;
60336;SDS011;46978;50.288;28.624;2023-10-13T04:22:40;15.92;;;8.14;;
60336;SDS011;46978;50.288;28.624;2023-10-13T04:23:44;16.74;;;8.67;;
60336;SDS011;46978;50.288;28.624;2023-10-13T04:24:47;15.94;;;8.91;;
60336;SDS011;46978;50.288;28.624;2023-10-13T04:25:50;18.88;;;9.71;;
60336;SDS011;46978;50.288;28.624;2023-10-13T04:26:52;16.90;;;8.81;;
60336;SDS011;46978;50.288;28.624;2023-10-13T04:27:54;16.19;;;9.66;;
60336;SDS011;46978;50.288;28.624;2023-10-13T04:28:55;15.76;;;9.50;;
60336;SDS011;46978;50.288;28.624;2023-10-13T04:29:57;15.96;;;9.01;;
60336;SDS011;46978;50.288;28.624;2023-10-13T04:31:00;16.53;;;9.49;;
60336;SDS011;46978;50.288;28.624;2023-10-13T04:32:02;15.71;;;9.43;;
60336;SDS011;46978;50.288;28.624;2023-10-13T04:33:03;17.31;;;9.49;;
60336;SDS011;46978;50.288;28.624;2023-10-13T04:34:05;17.59;;;9.36;;
60336;SDS011;46978;50.288;28.624;2023-10-13T04:35:08;14.23;;;9.13;;
60336;SDS011;46978;50.288;28.624;2023-10-13T04:36:10;18.53;;;9.70;;
60336;SDS011;46978;50.288;28.624;2023-10-13T04:37:13;17.65;;;9.72;;
60336;SDS011;46978;50.288;28.624;2023-10-13T04:38:14;18.11;;;9.67;;
60336;SDS011;46978;50.288;28.624;2023-10-13T04:39:16;18.67;;;10.91;;
60336;SDS011;46978;50.288;28.624;2023-10-13T04:40:18;17.87;;;9.85;;
60336;SDS011;46978;50.288;28.624;2023-10-13T04:41:20;22.49;;;10.83;;
60336;SDS011;46978;50.288;28.624;2023-10-13T04:42:21;17.59;;;10.11;;
60336;SDS011;46978;50.288;28.624;2023-10-13T04:43:23;16.84;;;10.04;;
60336;SDS011;46978;50.288;28.624;2023-10-13T04:44:25;17.30;;;10.42;;
60336;SDS011;46978;50.288;28.624;2023-10-13T04:45:26;16.82;;;10.46;;
60336;SDS011;46978;50.288;28.624;2023-10-13T04:46:28;21.77;;;10.79;;
60336;SDS011;46978;50.288;28.624;2023-10-13T04:47:30;17.73;;;10.46;;
60336;SDS011;46978;50.288;28.624;2023-10-13T04:48:31;17.87;;;9.67;;
60336;SDS011;46978;50.288;28.624;2023-10-13T04:49:34;18.61;;;10.19;;
60336;SDS011;46978;50.288;28.624;2023-10-13T04:50:38;19.49;;;10.64;;
60336;SDS011;46978;50.288;28.624;2023-10-13T04:51:39;20.98;;;10.71;;
60336;SDS011;46978;50.288;28.624;2023-10-13T04:52:41;18.28;;;10.51;;
60336;SDS011;46978;50.288;28.624;2023-10-13T04:53:42;16.94;;;10.01;;
60336;SDS011;46978;50.288;28.624;2023-10-13T04:54:44;23.58;;;10.99;;
60336;SDS011;46978;50.288;28.624;2023-10-13T04:55:48;18.35;;;10.78;;
60336;SDS011;46978;50.288;28.624;2023-10-13T04:56:51;19.88;;;9.96;;
60336;SDS011;46978;50.288;28.624;2023-10-13T04:57:52;17.52;;;10.51;;
60336;SDS011;46978;50.288;28.624;2023-10-13T04:58:54;19.51;;;10.71;;
60336;SDS011;46978;50.288;28.624;2023-10-13T04:59:55;19.31;;;11.02;;
60336;SDS011;46978;50.288;28.624;2023-10-13T05:01:05;18.27;;;10.27;;
60336;SDS011;46978;50.288;28.624;2023-10-13T05:02:04;20.13;;;10.42;;
60336;SDS011;46978;50.288;28.624;2023-10-13T05:03:05;18.87;;;10.10;;
60336;SDS011;46978;50.288;28.624;2023-10-13T05:04:07;21.41;;;10.30;;
60336;SDS011;46978;50.288;28.624;2023-10-13T05:05:09;16.29;;;10.04;;
60336;SDS011;46978;50.288;28.624;2023-10-13T05:06:13;15.45;;;10.11;;
60336;SDS011;46978;50.288;28.624;2023-10-13T05:07:14;18.82;;;10.57;;
60336;SDS011;46978;50.288;28.624;2023-10-13T05:08:16;18.58;;;10.04;;
60336;SDS011;46978;50.288;28.624;2023-10-13T05:09:17;17.13;;;9.71;;
60336;SDS011;46978;50.288;28.624;2023-10-13T05:10:19;17.43;;;9.95;;
60336;SDS011;46978;50.288;28.624;2023-10-13T05:11:21;17.29;;;9.41;;
60336;SDS011;46978;50.288;28.624;2023-10-13T05:12:22;17.54;;;9.39;;
60336;SDS011;46978;50.288;28.624;2023-10-13T05:13:24;18.78;;;9.84;;
60336;SDS011;46978;50.288;28.624;2023-10-13T05:14:25;19.80;;;9.64;;
60336;SDS011;46978;50.288;28.624;2023-10-13T05:15:27;17.34;;;9.68;;
60336;SDS011;46978;50.288;28.624;2023-10-13T05:16:29;16.04;;;9.78;;
60336;SDS011;46978;50.288;28.624;2023-10-13T05:17:30;17.67;;;9.43;;
60336;SDS011;46978;50.288;28.624;2023-10-13T05:18:32;15.69;;;9.44;;
60336;SDS011;46978;50.288;28.624;2023-10-13T05:19:33;16.44;;;9.44;;
60336;SDS011;46978;50.288;28.624;2023-10-13T05:20:35;17.77;;;9.77;;
60336;SDS011;46978;50.288;28.624;2023-10-13T05:21:37;14.85;;;9.38;;
60336;SDS011;46978;50.288;28.624;2023-10-13T05:22:38;19.94;;;10.39;;
60336;SDS011;46978;50.288;28.624;2023-10-13T05:23:40;17.57;;;9.68;;
60336;SDS011;46978;50.288;28.624;2023-10-13T05:24:42;18.11;;;9.83;;
60336;SDS011;46978;50.288;28.624;2023-10-13T05:25:43;18.31;;;10.16;;
60336;SDS011;46978;50.288;28.624;2023-10-13T05:26:45;18.21;;;10.49;;
60336;SDS011;46978;50.288;28.624;2023-10-13T05:27:47;20.37;;;10.11;;
60336;SDS011;46978;50.288;28.624;2023-10-13T05:28:48;17.62;;;10.13;;
60336;SDS011;46978;50.288;28.624;2023-10-13T05:29:50;21.19;;;10.78;;
60336;SDS011;46978;50.288;28.624;2023-10-13T05:30:51;17.49;;;10.16;;
60336;SDS011;46978;50.288;28.624;2023-10-13T05:31:53;16.53;;;9.90;;
60336;SDS011;46978;50.288;28.624;2023-10-13T05:32:54;17.84;;;10.11;;
60336;SDS011;46978;50.288;28.624;2023-10-13T05:33:56;18.97;;;10.81;;
60336;SDS011;46978;50.288;28.624;2023-10-13T05:34:58;18.31;;;10.41;;
60336;SDS011;46978;50.288;28.624;2023-10-13T05:35:59;21.51;;;10.68;;
60336;SDS011;46978;50.288;28.624;2023-10-13T05:37:01;22.69;;;10.21;;
60336;SDS011;46978;50.288;28.624;2023-10-13T05:38:02;21.34;;;10.99;;
60336;SDS011;46978;50.288;28.624;2023-10-13T05:39:04;23.40;;;11.35;;
60336;SDS011;46978;50.288;28.624;2023-10-13T05:40:06;20.25;;;10.53;;
60336;SDS011;46978;50.288;28.624;2023-10-13T05:41:09;15.49;;;10.23;;
60336;SDS011;46978;50.288;28.624;2023-10-13T05:42:10;17.64;;;10.04;;
60336;SDS011;46978;50.288;28.624;2023-10-13T05:43:12;18.05;;;10.67;;
60336;SDS011;46978;50.288;28.624;2023-10-13T05:44:13;17.55;;;10.44;;
60336;SDS011;46978;50.288;28.624;2023-10-13T05:45:15;17.23;;;10.86;;
60336;SDS011;46978;50.288;28.624;2023-10-13T05:46:17;20.40;;;10.97;;
60336;SDS011;46978;50.288;28.624;2023-10-13T05:47:18;16.11;;;10.04;;
60336;SDS011;46978;50.288;28.624;2023-10-13T05:48:20;20.02;;;10.91;;
60336;SDS011;46978;50.288;28.624;2023-10-13T05:49:22;18.09;;;10.73;;
60336;SDS011;46978;50.288;28.624;2023-10-13T05:50:23;18.85;;;10.55;;
60336;SDS011;46978;50.288;28.624;2023-10-13T05:51:25;16.71;;;10.40;;
60336;SDS011;46978;50.288;28.624;2023-10-13T05:52:31;20.21;;;10.66;;
60336;SDS011;46978;50.288;28.624;2023-10-13T05:54:54;16.99;;;10.32;;
60336;SDS011;46978;50.288;28.624;2023-10-13T05:55:59;17.38;;;10.44;;
60336;SDS011;46978;50.288;28.624;2023-10-13T05:57:02;18.26;;;11.41;;
60336;SDS011;46978;50.288;28.624;2023-10-13T05:58:04;18.26;;;11.23;;
60336;SDS011;46978;50.288;28.624;2023-10-13T05:59:05;17.76;;;10.59;;
60336;SDS011;46978;50.288;28.624;2023-10-13T06:00:08;19.81;;;10.56;;
60336;SDS011;46978;50.288;28.624;2023-10-13T06:01:11;19.85;;;10.68;;
60336;SDS011;46978;50.288;28.624;2023-10-13T06:02:17;18.19;;;11.06;;
60336;SDS011;46978;50.288;28.624;2023-10-13T06:03:20;16.26;;;10.73;;
60336;SDS011;46978;50.288;28.624;2023-10-13T06:04:22;18.97;;;10.61;;
60336;SDS011;46978;50.288;28.624;2023-10-13T06:05:23;16.94;;;10.78;;
60336;SDS011;46978;50.288;28.624;2023-10-13T06:06:25;17.77;;;10.43;;
60336;SDS011;46978;50.288;28.624;2023-10-13T06:07:27;16.31;;;9.61;;
60336;SDS011;46978;50.288;28.624;2023-10-13T06:08:28;16.17;;;10.06;;
60336;SDS011;46978;50.288;28.624;2023-10-13T06:09:30;16.29;;;10.32;;
60336;SDS011;46978;50.288;28.624;2023-10-13T06:10:32;18.11;;;10.32;;
60336;SDS011;46978;50.288;28.624;2023-10-13T06:11:34;17.29;;;9.86;;